createdAt,value
2023-02-22T00:00:01.105Z,1016.39
2023-02-22T00:01:01.108Z,1016.38
2023-02-22T00:02:01.150Z,1016.4
2023-02-22T00:03:01.279Z,1016.42
2023-02-22T00:04:01.159Z,1016.38
2023-02-22T00:05:01.449Z,1016.38
2023-02-22T00:06:01.171Z,1016.39
2023-02-22T00:07:01.148Z,1016.39
2023-02-22T00:08:01.175Z,1016.37
2023-02-22T00:09:01.181Z,1016.37
2023-02-22T00:10:01.594Z,1016.37
2023-02-22T00:11:00.972Z,1016.36
2023-02-22T00:12:00.796Z,1016.36
2023-02-22T00:13:00.804Z,1016.38
2023-02-22T00:14:00.576Z,1016.33
2023-02-22T00:15:00.265Z,1016.33
2023-02-22T00:16:00.010Z,1016.36
2023-02-22T00:17:00.068Z,1016.38
2023-02-22T00:17:59.781Z,1016.38
2023-02-22T00:19:01.415Z,1016.34
2023-02-22T00:20:02.459Z,1016.33
2023-02-22T00:21:01.142Z,1016.35
2023-02-22T00:22:01.149Z,1016.36
2023-02-22T00:23:01.157Z,1016.34
2023-02-22T00:24:01.161Z,1016.37
2023-02-22T00:25:01.152Z,1016.34
2023-02-22T00:26:01.554Z,1016.31
2023-02-22T00:27:01.741Z,1016.32
2023-02-22T00:28:01.757Z,1016.34
2023-02-22T00:29:01.747Z,1016.37
2023-02-22T00:30:02.221Z,1016.34
2023-02-22T00:31:01.493Z,1016.33
2023-02-22T00:32:01.197Z,1016.36
2023-02-22T00:33:01.126Z,1016.34
2023-02-22T00:34:01.801Z,1016.34
2023-02-22T00:35:01.285Z,1016.34
2023-02-22T00:36:01.123Z,1016.36
2023-02-22T00:37:01.130Z,1016.37
2023-02-22T00:38:01.160Z,1016.3
2023-02-22T00:39:01.161Z,1016.31
2023-02-22T00:40:01.057Z,1016.25
2023-02-22T00:41:01.156Z,1016.35
2023-02-22T00:42:01.382Z,1016.33
2023-02-22T00:43:01.396Z,1016.29
2023-02-22T00:44:01.401Z,1016.32
2023-02-22T00:45:01.212Z,1016.31
2023-02-22T00:46:01.164Z,1016.34
2023-02-22T00:47:01.067Z,1016.29
2023-02-22T00:48:01.086Z,1016.31
2023-02-22T00:49:01.056Z,1016.34
2023-02-22T00:50:01.112Z,1016.34
2023-02-22T00:51:01.521Z,1016.33
2023-02-22T00:52:01.240Z,1016.34
2023-02-22T00:53:01.261Z,1016.3
2023-02-22T00:54:02.415Z,1016.3
2023-02-22T00:55:02.063Z,1016.26
2023-02-22T00:56:01.164Z,1016.3
2023-02-22T00:57:01.154Z,1016.27
2023-02-22T00:58:01.269Z,1016.26
2023-02-22T00:59:01.837Z,1016.28
2023-02-22T01:00:01.341Z,1016.3
2023-02-22T01:01:02.060Z,1016.31
2023-02-22T01:02:01.141Z,1016.29
2023-02-22T01:03:01.122Z,1016.34
2023-02-22T01:04:01.242Z,1016.34
2023-02-22T01:05:01.789Z,1016.35
2023-02-22T01:06:03.558Z,1016.33
2023-02-22T01:07:01.110Z,1016.38
2023-02-22T01:08:01.148Z,1016.36
2023-02-22T01:09:01.348Z,1016.32
2023-02-22T01:10:01.369Z,1016.38
2023-02-22T01:11:06.877Z,1016.33
2023-02-22T01:12:01.190Z,1016.34
2023-02-22T01:13:01.351Z,1016.34
2023-02-22T01:14:01.155Z,1016.34
2023-02-22T01:15:01.081Z,1016.32
2023-02-22T01:16:09.133Z,1016.3
2023-02-22T01:17:01.137Z,1016.32
2023-02-22T01:18:01.482Z,1016.29
2023-02-22T01:19:01.484Z,1016.3
2023-02-22T01:20:01.199Z,1016.25
2023-02-22T01:21:12.809Z,1016.29
2023-02-22T01:22:01.807Z,1016.21
2023-02-22T01:23:01.801Z,1016.25
2023-02-22T01:24:02.930Z,1016.25
2023-02-22T01:25:01.524Z,1016.28
2023-02-22T01:26:14.255Z,1016.25
2023-02-22T01:27:02.015Z,1016.27
2023-02-22T01:28:01.134Z,1016.27
2023-02-22T01:29:01.048Z,1016.3
2023-02-22T01:30:01.174Z,1016.27
2023-02-22T01:31:17.108Z,1016.25
2023-02-22T01:32:01.978Z,1016.25
2023-02-22T01:33:01.136Z,1016.25
2023-02-22T01:34:01.072Z,1016.29
2023-02-22T01:35:01.084Z,1016.21
2023-02-22T01:36:01.101Z,1016.23
2023-02-22T01:37:01.101Z,1016.24
2023-02-22T01:38:01.439Z,1016.23
2023-02-22T01:39:01.487Z,1016.19
2023-02-22T01:40:02.232Z,1016.2
2023-02-22T01:41:01.144Z,1016.2
2023-02-22T01:42:01.130Z,1016.18
2023-02-22T01:43:01.154Z,1016.2
2023-02-22T01:44:01.166Z,1016.18
2023-02-22T01:45:01.148Z,1016.19
2023-02-22T01:46:01.240Z,1016.2
2023-02-22T01:47:01.150Z,1016.19
2023-02-22T01:48:01.673Z,1016.17
2023-02-22T01:49:01.073Z,1016.19
2023-02-22T01:50:01.418Z,1016.15
2023-02-22T01:51:01.096Z,1016.15
2023-02-22T01:52:01.199Z,1016.12
2023-02-22T01:53:01.092Z,1016.14
2023-02-22T01:54:01.106Z,1016.11
2023-02-22T01:55:01.100Z,1016.15
2023-02-22T01:56:01.116Z,1016.17
2023-02-22T01:57:01.502Z,1016.16
2023-02-22T01:58:01.144Z,1016.2
2023-02-22T01:59:01.837Z,1016.19
2023-02-22T02:00:03.892Z,1016.13
2023-02-22T02:01:01.513Z,1016.18
2023-02-22T02:02:01.153Z,1016.19
2023-02-22T02:03:01.160Z,1016.15
2023-02-22T02:04:01.952Z,1016.16
2023-02-22T02:05:02.068Z,1016.13
2023-02-22T02:06:02.076Z,1016.17
2023-02-22T02:07:01.090Z,1016.18
2023-02-22T02:08:01.771Z,1016.13
2023-02-22T02:09:01.095Z,1016.14
2023-02-22T02:10:01.135Z,1016.17
2023-02-22T02:11:01.121Z,1016.16
2023-02-22T02:12:01.222Z,1016.15
2023-02-22T02:13:01.950Z,1016.18
2023-02-22T02:14:02.161Z,1016.16
2023-02-22T02:15:01.253Z,1016.14
2023-02-22T02:16:02.062Z,1016.12
2023-02-22T02:17:02.578Z,1016.11
2023-02-22T02:18:01.770Z,1016.1
2023-02-22T02:19:01.378Z,1016.09
2023-02-22T02:20:01.063Z,1016.08
2023-02-22T02:21:01.785Z,1016.13
2023-02-22T02:22:01.415Z,1016.12
2023-02-22T02:23:01.447Z,1016.1
2023-02-22T02:24:02.196Z,1016.1
2023-02-22T02:25:02.178Z,1016.11
2023-02-22T02:26:01.117Z,1016.08
2023-02-22T02:27:01.548Z,1016.08
2023-02-22T02:28:01.125Z,1016.09
2023-02-22T02:29:01.118Z,1016.05
2023-02-22T02:30:01.140Z,1016.07
2023-02-22T02:31:01.182Z,1016.03
2023-02-22T02:32:01.690Z,1016.02
2023-02-22T02:33:01.275Z,1016.05
2023-02-22T02:34:01.154Z,1016.05
2023-02-22T02:35:01.164Z,1016.07
2023-02-22T02:36:01.251Z,1016.08
2023-02-22T02:37:01.625Z,1016.08
2023-02-22T02:38:01.833Z,1016.05
2023-02-22T02:39:01.789Z,1016.01
2023-02-22T02:40:02.686Z,1016.03
2023-02-22T02:41:01.821Z,1016.07
2023-02-22T02:42:03.964Z,1016.1
2023-02-22T02:43:02.470Z,1016.04
2023-02-22T02:44:01.122Z,1016.07
2023-02-22T02:45:01.045Z,1016.04
2023-02-22T02:46:01.051Z,1016.05
2023-02-22T02:47:01.185Z,1016.09
2023-02-22T02:48:01.151Z,1016.05
2023-02-22T02:49:01.792Z,1016.04
2023-02-22T02:50:02.527Z,1016.07
2023-02-22T02:51:01.442Z,1016.08
2023-02-22T02:52:01.249Z,1016.07
2023-02-22T02:53:01.972Z,1016.08
2023-02-22T02:54:02.608Z,1016.06
2023-02-22T02:55:01.082Z,1016.07
2023-02-22T02:56:01.118Z,1016.1
2023-02-22T02:57:04.682Z,1016.08
2023-02-22T02:58:01.106Z,1016.04
2023-02-22T02:59:01.123Z,1016.09
2023-02-22T03:00:01.117Z,1016.08
2023-02-22T03:01:01.120Z,1016.16
2023-02-22T03:02:07.043Z,1016.09
2023-02-22T03:03:01.139Z,1016.1
2023-02-22T03:04:01.153Z,1016.1
2023-02-22T03:05:01.136Z,1016.08
2023-02-22T03:06:01.146Z,1016.07
2023-02-22T03:07:10.252Z,1016.1
2023-02-22T03:08:01.159Z,1016.08
2023-02-22T03:09:01.872Z,1016.09
2023-02-22T03:10:02.130Z,1016.09
2023-02-22T03:11:01.198Z,1016.05
2023-02-22T03:12:13.945Z,1016.09
2023-02-22T03:13:04.749Z,1016.09
2023-02-22T03:14:01.158Z,1016.06
2023-02-22T03:15:01.860Z,1016.04
2023-02-22T03:16:01.785Z,1016.1
2023-02-22T03:17:15.989Z,1016.06
2023-02-22T03:18:01.504Z,1016.06
2023-02-22T03:19:01.134Z,1016.08
2023-02-22T03:20:01.207Z,1016.03
2023-02-22T03:21:01.141Z,1016.09
2023-02-22T03:22:01.145Z,1016.07
2023-02-22T03:23:01.481Z,1016.03
2023-02-22T03:24:01.190Z,1016.04
2023-02-22T03:25:01.197Z,1016.03
2023-02-22T03:26:01.208Z,1016.07
2023-02-22T03:27:01.212Z,1016.07
2023-02-22T03:28:04.269Z,1016.09
2023-02-22T03:29:01.907Z,1016.09
2023-02-22T03:30:01.985Z,1016.12
2023-02-22T03:31:01.139Z,1016.05
2023-02-22T03:32:01.645Z,1016.13
2023-02-22T03:33:01.122Z,1016.09
2023-02-22T03:34:01.461Z,1016.11
2023-02-22T03:35:01.184Z,1016.1
2023-02-22T03:36:01.158Z,1016.06
2023-02-22T03:37:01.150Z,1016.05
2023-02-22T03:38:01.147Z,1016.06
2023-02-22T03:39:01.154Z,1016.13
2023-02-22T03:40:01.158Z,1016.13
2023-02-22T03:41:01.172Z,1016.05
2023-02-22T03:42:01.063Z,1016.07
2023-02-22T03:43:01.079Z,1016.07
2023-02-22T03:44:01.336Z,1016.11
2023-02-22T03:45:01.417Z,1016.1
2023-02-22T03:46:02.194Z,1016.08
2023-02-22T03:47:01.069Z,1016.1
2023-02-22T03:48:01.121Z,1016.12
2023-02-22T03:49:01.133Z,1016.07
2023-02-22T03:50:01.160Z,1016.1
2023-02-22T03:51:01.156Z,1016.1
2023-02-22T03:52:01.142Z,1016.06
2023-02-22T03:53:01.530Z,1016.07
2023-02-22T03:54:01.153Z,1016.1
2023-02-22T03:55:01.154Z,1016.04
2023-02-22T03:56:01.187Z,1016.07
2023-02-22T03:57:01.234Z,1016.09
2023-02-22T03:58:01.193Z,1016.11
2023-02-22T03:59:01.143Z,1016.01
2023-02-22T04:00:01.118Z,1016.09
2023-02-22T04:01:01.078Z,1016.07
2023-02-22T04:02:01.075Z,1016.09
2023-02-22T04:03:01.187Z,1016.1
2023-02-22T04:04:01.051Z,1016.08
2023-02-22T04:05:01.990Z,1016.11
2023-02-22T04:06:01.805Z,1016.1
2023-02-22T04:07:01.125Z,1016.05
2023-02-22T04:08:01.128Z,1016.04
2023-02-22T04:09:01.147Z,1016.02
2023-02-22T04:10:02.065Z,1016
2023-02-22T04:11:00.890Z,1015.96
2023-02-22T04:12:00.638Z,1016.04
2023-02-22T04:13:00.359Z,1016.02
2023-02-22T04:14:00.287Z,1016.04
2023-02-22T04:14:59.939Z,1016.02
2023-02-22T04:15:59.843Z,1016.05
2023-02-22T04:16:59.637Z,1016
2023-02-22T04:18:01.762Z,1015.97
2023-02-22T04:19:02.425Z,1015.98
2023-02-22T04:20:01.418Z,1015.98
2023-02-22T04:21:02.120Z,1015.97
2023-02-22T04:22:01.263Z,1016
2023-02-22T04:23:01.124Z,1015.98
2023-02-22T04:24:01.149Z,1015.97
2023-02-22T04:25:01.059Z,1015.96
2023-02-22T04:26:01.140Z,1015.96
2023-02-22T04:27:01.178Z,1015.92
2023-02-22T04:28:01.463Z,1015.93
2023-02-22T04:29:01.246Z,1015.97
2023-02-22T04:30:00.837Z,1015.92
2023-02-22T04:31:01.500Z,1015.95
2023-02-22T04:32:02.190Z,1015.96
2023-02-22T04:33:02.656Z,1015.97
2023-02-22T04:34:01.910Z,1015.98
2023-02-22T04:35:01.687Z,1016.02
2023-02-22T04:36:01.124Z,1016.01
2023-02-22T04:37:01.055Z,1016.02
2023-02-22T04:38:01.112Z,1016.04
2023-02-22T04:39:01.145Z,1016.04
2023-02-22T04:40:01.144Z,1016.04
2023-02-22T04:41:01.161Z,1016.03
2023-02-22T04:42:01.432Z,1016
2023-02-22T04:43:07.760Z,1015.89
2023-02-22T04:44:02.882Z,1015.95
2023-02-22T04:45:01.372Z,1015.95
2023-02-22T04:46:02.613Z,1015.91
2023-02-22T04:47:01.464Z,1015.94
2023-02-22T04:48:10.522Z,1015.86
2023-02-22T04:49:02.688Z,1015.86
2023-02-22T04:50:02.296Z,1015.89
2023-02-22T04:51:01.862Z,1015.87
2023-02-22T04:52:01.831Z,1015.82
2023-02-22T04:53:14.290Z,1015.89
2023-02-22T04:54:01.213Z,1015.79
2023-02-22T04:55:01.179Z,1015.86
2023-02-22T04:56:01.314Z,1015.81
2023-02-22T04:57:01.519Z,1015.85
2023-02-22T04:58:16.791Z,1015.9
2023-02-22T04:59:01.152Z,1015.86
2023-02-22T05:00:01.189Z,1015.81
2023-02-22T05:01:01.198Z,1015.83
2023-02-22T05:02:01.061Z,1015.87
2023-02-22T05:03:01.163Z,1015.92
2023-02-22T05:04:01.079Z,1015.89
2023-02-22T05:05:01.121Z,1015.88
2023-02-22T05:06:01.107Z,1015.88
2023-02-22T05:07:01.589Z,1015.85
2023-02-22T05:08:01.123Z,1015.83
2023-02-22T05:09:01.142Z,1015.87
2023-02-22T05:10:01.121Z,1015.84
2023-02-22T05:11:01.138Z,1015.86
2023-02-22T05:12:01.134Z,1015.85
2023-02-22T05:13:02.694Z,1015.82
2023-02-22T05:14:01.664Z,1015.84
2023-02-22T05:15:01.074Z,1015.76
2023-02-22T05:16:01.209Z,1015.83
2023-02-22T05:17:01.167Z,1015.81
2023-02-22T05:18:01.060Z,1015.81
2023-02-22T05:19:01.174Z,1015.78
2023-02-22T05:20:01.180Z,1015.8
2023-02-22T05:21:01.466Z,1015.78
2023-02-22T05:22:01.084Z,1015.8
2023-02-22T05:23:01.095Z,1015.83
2023-02-22T05:24:01.134Z,1015.82
2023-02-22T05:25:01.095Z,1015.77
2023-02-22T05:26:01.115Z,1015.78
2023-02-22T05:27:03.899Z,1015.76
2023-02-22T05:28:01.126Z,1015.81
2023-02-22T05:29:01.139Z,1015.8
2023-02-22T05:30:01.554Z,1015.85
2023-02-22T05:31:01.193Z,1015.84
2023-02-22T05:32:00.078Z,1015.86
2023-02-22T05:32:59.814Z,1015.85
2023-02-22T05:34:02.693Z,1015.9
2023-02-22T05:35:02.980Z,1015.85
2023-02-22T05:36:01.779Z,1015.81
2023-02-22T05:37:01.079Z,1015.75
2023-02-22T05:38:01.396Z,1015.78
2023-02-22T05:39:01.117Z,1015.82
2023-02-22T05:40:01.111Z,1015.78
2023-02-22T05:41:01.121Z,1015.79
2023-02-22T05:42:01.126Z,1015.84
2023-02-22T05:43:01.456Z,1015.88
2023-02-22T05:44:01.791Z,1015.87
2023-02-22T05:45:01.127Z,1015.86
2023-02-22T05:46:01.281Z,1015.92
2023-02-22T05:47:02.629Z,1015.9
2023-02-22T05:48:01.160Z,1015.86
2023-02-22T05:49:01.431Z,1015.9
2023-02-22T05:50:00.774Z,1015.91
2023-02-22T05:51:00.477Z,1015.82
2023-02-22T05:52:00.058Z,1015.86
2023-02-22T05:52:59.755Z,1015.87
2023-02-22T05:54:02.545Z,1015.9
2023-02-22T05:55:01.519Z,1015.93
2023-02-22T05:56:01.817Z,1015.91
2023-02-22T05:57:01.354Z,1015.9
2023-02-22T05:58:01.124Z,1015.94
2023-02-22T05:59:01.456Z,1015.94
2023-02-22T06:00:01.079Z,1015.95
2023-02-22T06:01:15.079Z,1015.95
2023-02-22T06:02:00.611Z,1015.98
2023-02-22T06:03:00.316Z,1016
2023-02-22T06:03:59.870Z,1015.97
2023-02-22T06:05:02.877Z,1015.99
2023-02-22T06:06:02.485Z,1015.99
2023-02-22T06:07:01.066Z,1015.96
2023-02-22T06:08:01.080Z,1015.98
2023-02-22T06:09:01.113Z,1016.04
2023-02-22T06:10:01.259Z,1015.99
2023-02-22T06:11:01.089Z,1016.04
2023-02-22T06:12:01.474Z,1016.03
2023-02-22T06:13:01.099Z,1016.01
2023-02-22T06:14:01.110Z,1016.04
2023-02-22T06:15:01.122Z,1016.04
2023-02-22T06:16:01.826Z,1016.04
2023-02-22T06:17:01.984Z,1016.07
2023-02-22T06:18:01.133Z,1016.11
2023-02-22T06:19:00.888Z,1016.09
2023-02-22T06:20:00.595Z,1016.08
2023-02-22T06:21:00.229Z,1016.1
2023-02-22T06:21:59.824Z,1016.08
2023-02-22T06:23:01.886Z,1016.12
2023-02-22T06:24:04.053Z,1016.07
2023-02-22T06:25:01.680Z,1016.06
2023-02-22T06:26:01.271Z,1016.07
2023-02-22T06:27:01.911Z,1016.11
2023-02-22T06:28:01.979Z,1016.07
2023-02-22T06:29:06.318Z,1016.06
2023-02-22T06:30:01.339Z,1016.09
2023-02-22T06:31:02.345Z,1016.08
2023-02-22T06:32:01.236Z,1016.05
2023-02-22T06:33:01.121Z,1016.08
2023-02-22T06:34:09.386Z,1016.1
2023-02-22T06:35:01.143Z,1016.12
2023-02-22T06:36:01.472Z,1016.11
2023-02-22T06:37:02.255Z,1016.15
2023-02-22T06:38:01.106Z,1016.15
2023-02-22T06:39:13.893Z,1016.11
2023-02-22T06:40:04.826Z,1016.1
2023-02-22T06:41:01.092Z,1016.1
2023-02-22T06:42:01.085Z,1016.08
2023-02-22T06:43:01.104Z,1016.14
2023-02-22T06:44:16.790Z,1016.12
2023-02-22T06:45:00.815Z,1016.15
2023-02-22T06:46:00.544Z,1016.22
2023-02-22T06:47:00.204Z,1016.21
2023-02-22T06:47:59.768Z,1016.24
2023-02-22T06:49:01.592Z,1016.22
2023-02-22T06:50:01.135Z,1016.21
2023-02-22T06:51:01.131Z,1016.21
2023-02-22T06:52:01.133Z,1016.23
2023-02-22T06:53:01.484Z,1016.25
2023-02-22T06:54:01.504Z,1016.22
2023-02-22T06:55:02.913Z,1016.22
2023-02-22T06:56:01.081Z,1016.25
2023-02-22T06:57:01.099Z,1016.27
2023-02-22T06:58:01.085Z,1016.26
2023-02-22T06:59:02.710Z,1016.31
2023-02-22T07:00:01.147Z,1016.25
2023-02-22T07:01:01.575Z,1016.26
2023-02-22T07:02:02.168Z,1016.28
2023-02-22T07:03:01.181Z,1016.32
2023-02-22T07:04:01.116Z,1016.3
2023-02-22T07:05:00.827Z,1016.33
2023-02-22T07:06:01.128Z,1016.29
2023-02-22T07:07:01.140Z,1016.31
2023-02-22T07:08:01.161Z,1016.3
2023-02-22T07:09:01.060Z,1016.31
2023-02-22T07:10:01.485Z,1016.34
2023-02-22T07:11:01.189Z,1016.33
2023-02-22T07:12:01.076Z,1016.31
2023-02-22T07:13:01.086Z,1016.32
2023-02-22T07:14:01.127Z,1016.32
2023-02-22T07:15:01.103Z,1016.34
2023-02-22T07:16:01.860Z,1016.35
2023-02-22T07:17:01.403Z,1016.35
2023-02-22T07:18:01.344Z,1016.36
2023-02-22T07:19:01.355Z,1016.37
2023-02-22T07:20:01.164Z,1016.35
2023-02-22T07:21:02.670Z,1016.38
2023-02-22T07:22:04.754Z,1016.37
2023-02-22T07:23:01.435Z,1016.42
2023-02-22T07:24:04.528Z,1016.39
2023-02-22T07:25:01.784Z,1016.38
2023-02-22T07:26:01.455Z,1016.45
2023-02-22T07:27:01.174Z,1016.42
2023-02-22T07:28:01.300Z,1016.44
2023-02-22T07:29:01.134Z,1016.4
2023-02-22T07:30:00.564Z,1016.42
2023-02-22T07:31:00.263Z,1016.41
2023-02-22T07:32:00.008Z,1016.43
2023-02-22T07:32:59.824Z,1016.43
2023-02-22T07:34:01.945Z,1016.44
2023-02-22T07:35:02.110Z,1016.43
2023-02-22T07:36:01.164Z,1016.42
2023-02-22T07:37:01.115Z,1016.39
2023-02-22T07:38:01.131Z,1016.37
2023-02-22T07:39:01.146Z,1016.41
2023-02-22T07:40:01.543Z,1016.4
2023-02-22T07:41:01.110Z,1016.4
2023-02-22T07:42:01.522Z,1016.39
2023-02-22T07:43:01.300Z,1016.34
2023-02-22T07:44:01.314Z,1016.34
2023-02-22T07:45:02.181Z,1016.42
2023-02-22T07:46:01.159Z,1016.4
2023-02-22T07:47:01.353Z,1016.39
2023-02-22T07:48:01.393Z,1016.39
2023-02-22T07:49:01.567Z,1016.41
2023-02-22T07:50:00.633Z,1016.43
2023-02-22T07:51:00.201Z,1016.5
2023-02-22T07:51:59.874Z,1016.44
2023-02-22T07:52:59.498Z,1016.45
2023-02-22T07:54:01.166Z,1016.46
2023-02-22T07:55:02.154Z,1016.44
2023-02-22T07:56:01.607Z,1016.43
2023-02-22T07:57:01.575Z,1016.44
2023-02-22T07:58:01.569Z,1016.41
2023-02-22T07:59:01.697Z,1016.41
2023-02-22T08:00:01.170Z,1016.45
2023-02-22T08:01:02.656Z,1016.39
2023-02-22T08:02:02.109Z,1016.42
2023-02-22T08:03:01.793Z,1016.38
2023-02-22T08:04:01.092Z,1016.41
2023-02-22T08:05:01.704Z,1016.43
2023-02-22T08:06:01.418Z,1016.39
2023-02-22T08:07:02.041Z,1016.41
2023-02-22T08:08:01.194Z,1016.41
2023-02-22T08:09:01.128Z,1016.4
2023-02-22T08:10:05.052Z,1016.38
2023-02-22T08:11:01.161Z,1016.35
2023-02-22T08:12:01.419Z,1016.37
2023-02-22T08:13:01.446Z,1016.39
2023-02-22T08:14:01.535Z,1016.38
2023-02-22T08:15:07.700Z,1016.32
2023-02-22T08:16:01.238Z,1016.32
2023-02-22T08:17:01.025Z,1016.35
2023-02-22T08:18:01.313Z,1016.34
2023-02-22T08:19:01.522Z,1016.34
2023-02-22T08:20:10.520Z,1016.35
2023-02-22T08:21:01.247Z,1016.36
2023-02-22T08:22:00.697Z,1016.35
2023-02-22T08:23:00.426Z,1016.37
2023-02-22T08:24:00.215Z,1016.37
2023-02-22T08:25:12.558Z,1016.34
2023-02-22T08:26:01.121Z,1016.36
2023-02-22T08:27:01.207Z,1016.31
2023-02-22T08:28:01.235Z,1016.34
2023-02-22T08:29:01.138Z,1016.34
2023-02-22T08:30:14.931Z,1016.33
2023-02-22T08:31:01.231Z,1016.3
2023-02-22T08:32:01.329Z,1016.32
2023-02-22T08:33:01.407Z,1016.28
2023-02-22T08:34:01.285Z,1016.31
2023-02-22T08:35:17.185Z,1016.29
2023-02-22T08:36:02.147Z,1016.35
2023-02-22T08:37:01.119Z,1016.32
2023-02-22T08:38:01.106Z,1016.32
2023-02-22T08:39:01.184Z,1016.33
2023-02-22T08:40:01.131Z,1016.31
2023-02-22T08:41:01.146Z,1016.38
2023-02-22T08:42:01.163Z,1016.35
2023-02-22T08:43:01.157Z,1016.42
2023-02-22T08:44:01.156Z,1016.38
2023-02-22T08:45:01.167Z,1016.36
2023-02-22T08:46:01.615Z,1016.37
2023-02-22T08:47:01.263Z,1016.36
2023-02-22T08:48:02.649Z,1016.36
2023-02-22T08:49:02.133Z,1016.36
2023-02-22T08:50:01.322Z,1016.31
2023-02-22T08:51:01.088Z,1016.32
2023-02-22T08:52:01.075Z,1016.32
2023-02-22T08:53:01.213Z,1016.34
2023-02-22T08:54:01.101Z,1016.33
2023-02-22T08:55:01.113Z,1016.34
2023-02-22T08:56:01.193Z,1016.37
2023-02-22T08:57:01.593Z,1016.36
2023-02-22T08:58:01.253Z,1016.36
2023-02-22T08:59:01.156Z,1016.41
2023-02-22T09:00:01.372Z,1016.37
2023-02-22T09:01:01.171Z,1016.38
2023-02-22T09:02:01.212Z,1016.4
2023-02-22T09:03:01.240Z,1016.36
2023-02-22T09:04:01.275Z,1016.41
2023-02-22T09:05:00.959Z,1016.41
2023-02-22T09:06:01.093Z,1016.39
2023-02-22T09:07:01.070Z,1016.4
2023-02-22T09:08:01.092Z,1016.44
2023-02-22T09:09:01.095Z,1016.39
2023-02-22T09:10:01.109Z,1016.46
2023-02-22T09:11:01.503Z,1016.43
2023-02-22T09:12:01.530Z,1016.44
2023-02-22T09:13:02.057Z,1016.42
2023-02-22T09:14:01.077Z,1016.39
2023-02-22T09:15:01.170Z,1016.33
2023-02-22T09:16:01.173Z,1016.41
2023-02-22T09:17:03.984Z,1016.44
2023-02-22T09:18:01.653Z,1016.45
2023-02-22T09:19:01.673Z,1016.43
2023-02-22T09:20:01.380Z,1016.43
2023-02-22T09:21:01.055Z,1016.46
2023-02-22T09:22:01.083Z,1016.43
2023-02-22T09:23:01.074Z,1016.45
2023-02-22T09:24:01.085Z,1016.48
2023-02-22T09:25:11.197Z,1016.49
2023-02-22T09:26:01.533Z,1016.44
2023-02-22T09:27:01.485Z,1016.49
2023-02-22T09:28:01.107Z,1016.51
2023-02-22T09:29:01.112Z,1016.46
2023-02-22T09:30:01.125Z,1016.47
2023-02-22T09:31:01.134Z,1016.48
2023-02-22T09:32:01.303Z,1016.43
2023-02-22T09:33:01.351Z,1016.49
2023-02-22T09:34:03.949Z,1016.47
2023-02-22T09:35:02.513Z,1016.45
2023-02-22T09:36:01.458Z,1016.49
2023-02-22T09:37:02.089Z,1016.49
2023-02-22T09:38:02.187Z,1016.5
2023-02-22T09:39:01.078Z,1016.5
2023-02-22T09:40:01.248Z,1016.51
2023-02-22T09:41:01.092Z,1016.49
2023-02-22T09:42:01.105Z,1016.49
2023-02-22T09:43:01.109Z,1016.45
2023-02-22T09:44:01.070Z,1016.5
2023-02-22T09:45:00.803Z,1016.5
2023-02-22T09:46:00.643Z,1016.49
2023-02-22T09:47:00.308Z,1016.49
2023-02-22T09:48:05.278Z,1016.41
2023-02-22T09:49:02.990Z,1016.49
2023-02-22T09:50:01.169Z,1016.42
2023-02-22T09:51:01.318Z,1016.46
2023-02-22T09:52:01.081Z,1016.43
2023-02-22T09:53:01.065Z,1016.45
2023-02-22T09:54:01.085Z,1016.42
2023-02-22T09:55:01.178Z,1016.42
2023-02-22T09:56:02.374Z,1016.42
2023-02-22T09:57:01.740Z,1016.4
2023-02-22T09:58:03.149Z,1016.4
2023-02-22T09:59:01.492Z,1016.41
2023-02-22T10:00:01.150Z,1016.41
2023-02-22T10:01:02.085Z,1016.39
2023-02-22T10:02:01.227Z,1016.41
2023-02-22T10:03:01.927Z,1016.37
2023-02-22T10:04:01.397Z,1016.36
2023-02-22T10:05:00.655Z,1016.36
2023-02-22T10:06:03.403Z,1016.42
2023-02-22T10:07:01.159Z,1016.38
2023-02-22T10:08:01.170Z,1016.37
2023-02-22T10:09:01.059Z,1016.35
2023-02-22T10:10:01.080Z,1016.4
2023-02-22T10:11:05.197Z,1016.35
2023-02-22T10:12:01.879Z,1016.36
2023-02-22T10:13:01.911Z,1016.33
2023-02-22T10:14:04.159Z,1016.36
2023-02-22T10:15:01.049Z,1016.38
2023-02-22T10:16:09.212Z,1016.34
2023-02-22T10:17:01.919Z,1016.37
2023-02-22T10:18:01.156Z,1016.35
2023-02-22T10:19:01.136Z,1016.33
2023-02-22T10:20:01.374Z,1016.32
2023-02-22T10:21:12.372Z,1016.34
2023-02-22T10:22:01.150Z,1016.32
2023-02-22T10:23:01.163Z,1016.35
2023-02-22T10:24:01.157Z,1016.32
2023-02-22T10:25:00.857Z,1016.34
2023-02-22T10:26:14.651Z,1016.29
2023-02-22T10:27:01.074Z,1016.33
2023-02-22T10:28:01.061Z,1016.35
2023-02-22T10:29:01.459Z,1016.33
2023-02-22T10:30:05.595Z,1016.31
2023-02-22T10:31:01.396Z,1016.32
2023-02-22T10:32:01.244Z,1016.28
2023-02-22T10:33:02.021Z,1016.27
2023-02-22T10:34:01.131Z,1016.28
2023-02-22T10:35:01.130Z,1016.26
2023-02-22T10:36:00.779Z,1016.27
2023-02-22T10:37:00.693Z,1016.25
2023-02-22T10:38:00.340Z,1016.28
2023-02-22T10:39:00.015Z,1016.18
2023-02-22T10:39:59.722Z,1016.24
2023-02-22T10:41:01.356Z,1016.26
2023-02-22T10:42:02.603Z,1016.19
2023-02-22T10:43:01.982Z,1016.2
2023-02-22T10:44:01.791Z,1016.22
2023-02-22T10:45:00.670Z,1016.21
2023-02-22T10:46:00.475Z,1016.15
2023-02-22T10:47:00.064Z,1016.14
2023-02-22T10:47:59.651Z,1016.09
2023-02-22T10:49:01.312Z,1016.15
2023-02-22T10:50:01.122Z,1016.11
2023-02-22T10:51:01.131Z,1016.12
2023-02-22T10:52:01.486Z,1016.12
2023-02-22T10:53:01.140Z,1016.14
2023-02-22T10:54:01.135Z,1016.13
2023-02-22T10:55:14.168Z,1016.13
2023-02-22T10:56:01.214Z,1016.16
2023-02-22T10:57:01.271Z,1016.12
2023-02-22T10:58:00.952Z,1016.11
2023-02-22T10:59:00.661Z,1016.13
2023-02-22T11:00:00.350Z,1016.11
2023-02-22T11:01:00.189Z,1016.12
2023-02-22T11:01:59.893Z,1016.14
2023-02-22T11:02:59.555Z,1016.1
2023-02-22T11:04:01.145Z,1016.1
2023-02-22T11:05:00.990Z,1016.08
2023-02-22T11:06:01.122Z,1016.11
2023-02-22T11:07:01.518Z,1016.11
2023-02-22T11:08:01.728Z,1016.09
2023-02-22T11:09:01.117Z,1016.11
2023-02-22T11:10:01.047Z,1016.11
2023-02-22T11:11:01.163Z,1016.06
2023-02-22T11:12:01.167Z,1016.05
2023-02-22T11:13:01.166Z,1016.07
2023-02-22T11:14:01.994Z,1016.11
2023-02-22T11:15:01.882Z,1016.04
2023-02-22T11:16:01.088Z,1016.05
2023-02-22T11:17:01.174Z,1016.12
2023-02-22T11:18:01.910Z,1016.07
2023-02-22T11:19:01.114Z,1016.05
2023-02-22T11:20:01.279Z,1016.06
2023-02-22T11:21:01.062Z,1016.1
2023-02-22T11:22:01.500Z,1016.06
2023-02-22T11:23:00.847Z,1016.07
2023-02-22T11:24:01.165Z,1016.04
2023-02-22T11:25:00.639Z,1016.04
2023-02-22T11:26:00.335Z,1016.02
2023-02-22T11:27:00.654Z,1015.99
2023-02-22T11:28:01.725Z,1015.97
2023-02-22T11:29:01.265Z,1016
2023-02-22T11:30:01.588Z,1015.98
2023-02-22T11:31:02.756Z,1016.01
2023-02-22T11:32:01.133Z,1015.99
2023-02-22T11:33:01.101Z,1016.01
2023-02-22T11:34:01.437Z,1015.95
2023-02-22T11:35:09.060Z,1015.98
2023-02-22T11:36:02.271Z,1015.93
2023-02-22T11:37:01.115Z,1015.98
2023-02-22T11:38:01.506Z,1015.95
2023-02-22T11:39:01.145Z,1015.92
2023-02-22T11:40:01.130Z,1015.98
2023-02-22T11:41:01.047Z,1015.89
2023-02-22T11:42:01.137Z,1015.9
2023-02-22T11:43:01.140Z,1015.85
2023-02-22T11:44:01.141Z,1015.85
2023-02-22T11:45:01.508Z,1015.88
2023-02-22T11:46:02.317Z,1015.81
2023-02-22T11:47:02.052Z,1015.8
2023-02-22T11:48:01.964Z,1015.81
2023-02-22T11:49:01.088Z,1015.82
2023-02-22T11:50:01.120Z,1015.87
2023-02-22T11:51:01.125Z,1015.82
2023-02-22T11:52:05.486Z,1015.83
2023-02-22T11:53:01.925Z,1015.84
2023-02-22T11:54:01.786Z,1015.81
2023-02-22T11:55:01.124Z,1015.81
2023-02-22T11:56:01.497Z,1015.82
2023-02-22T11:57:10.149Z,1015.82
2023-02-22T11:58:02.572Z,1015.78
2023-02-22T11:59:01.144Z,1015.82
2023-02-22T12:00:01.243Z,1015.84
2023-02-22T12:01:01.985Z,1015.84
2023-02-22T12:02:11.336Z,1015.79
2023-02-22T12:03:02.149Z,1015.74
2023-02-22T12:04:01.267Z,1015.81
2023-02-22T12:05:01.413Z,1015.73
2023-02-22T12:06:01.198Z,1015.73
2023-02-22T12:07:14.306Z,1015.75
2023-02-22T12:08:13.794Z,1015.74